Pagrindinis puslapis
METAR-TAF:

METAR-TAF

Oro uostai :

North Perry Airport

Hollywood, Florida, Jungtinės Amerikos Valstijos

platuma: 25-59-56N, ilguma: 080-14-28W, Aukštis: 2 m

Dabartinis oras

Ataskaita buvo paskelbta 25 minutes, ne 15:53 UTC
Vėjas 5 kt nuo kintamojo kryptimis
Temperatūra 26°C
Drėgmė 48%
Slėgis 1022 hPa
Matomumas: 16.1 km
Giedras dangus

METAR: KHWO 071553Z VRB05KT 10SM CLR 26/14 A3018 RMK AO2 SLP218 T02560144 $

Laikas: 11:18 (16:18 UTC)


TAF: trūkstamas

Orai ataskaitas ir orų prognozės (METAR, TAF).

turimą stotys yra geltonos ir raudonos taškus žemėlapyje.

Perkelti pele per norėdami pamatyti stoties vardą.

Tada spustelėkite, norėdami matyti oro stebėjimo ir prognozės.

Norėdami pakeisti žemėlapį: spustelėkite ant žalios mygtukų su juodo kryžiaus žemyn,; žalią mygtuką su brūkšneliu, jei norite nutolinti; arba žalių rodyklių gretimoms žemėlapius.


METAR-TAF: